createdAt,value
2017-10-16T00:01:14.723Z,91.50
2017-10-16T00:03:42.281Z,91.60
2017-10-16T00:06:09.840Z,91.60
2017-10-16T00:08:37.442Z,91.60
2017-10-16T00:11:05.760Z,91.60
2017-10-16T00:13:33.316Z,91.60
2017-10-16T00:16:01.085Z,91.60
2017-10-16T00:18:29.413Z,91.70
2017-10-16T00:20:56.977Z,91.60
2017-10-16T00:23:25.367Z,91.70
2017-10-16T00:25:52.924Z,91.70
2017-10-16T00:28:20.495Z,91.80
2017-10-16T00:30:48.292Z,91.80
2017-10-16T00:33:16.625Z,91.80
2017-10-16T00:35:44.177Z,91.80
2017-10-16T00:38:11.775Z,91.90
2017-10-16T00:40:39.340Z,91.80
2017-10-16T00:43:06.904Z,91.80
2017-10-16T00:45:34.675Z,91.90
2017-10-16T00:48:02.223Z,91.70
2017-10-16T00:50:30.544Z,91.70
2017-10-16T00:52:58.146Z,91.70
2017-10-16T00:55:25.700Z,91.70
2017-10-16T00:57:53.247Z,91.70
2017-10-16T01:00:20.852Z,91.70
2017-10-16T01:02:48.404Z,91.80
2017-10-16T01:05:16.725Z,91.70
2017-10-16T01:07:44.420Z,91.80
2017-10-16T01:10:12.740Z,91.80
2017-10-16T01:12:40.324Z,91.80
2017-10-16T01:15:08.719Z,91.90
2017-10-16T01:17:36.311Z,91.90
2017-10-16T01:20:03.876Z,91.90
2017-10-16T01:22:32.243Z,92.00
2017-10-16T01:25:00.571Z,92.10
2017-10-16T01:27:28.128Z,92.00
2017-10-16T01:29:55.752Z,92.10
2017-10-16T01:32:24.078Z,92.20
2017-10-16T01:34:51.631Z,92.20
2017-10-16T01:37:19.443Z,92.30
2017-10-16T01:39:47.005Z,92.30
2017-10-16T01:42:14.566Z,92.30
2017-10-16T01:44:42.176Z,92.40
2017-10-16T01:47:09.736Z,92.20
2017-10-16T01:49:37.302Z,92.40
2017-10-16T01:52:05.052Z,92.50
2017-10-16T01:54:33.380Z,92.50
2017-10-16T01:57:00.944Z,92.50
2017-10-16T01:59:28.707Z,92.50
2017-10-16T02:01:56.273Z,92.60
2017-10-16T02:04:24.591Z,92.60
2017-10-16T02:06:52.192Z,92.60
2017-10-16T02:09:19.747Z,92.70
2017-10-16T02:11:47.305Z,92.70
2017-10-16T02:14:15.092Z,92.80
2017-10-16T02:16:43.411Z,93.00
2017-10-16T02:19:10.968Z,92.90
2017-10-16T02:21:38.749Z,92.90
2017-10-16T02:24:07.078Z,93.00
2017-10-16T02:26:35.400Z,93.00
2017-10-16T02:29:03.092Z,93.10
2017-10-16T02:31:31.415Z,93.10
2017-10-16T02:33:58.983Z,93.40
2017-10-16T02:36:26.599Z,93.10
2017-10-16T02:38:54.153Z,93.10
2017-10-16T02:41:21.707Z,93.10
2017-10-16T02:43:49.308Z,93.20
2017-10-16T02:46:16.864Z,93.10
2017-10-16T02:48:44.431Z,93.10
2017-10-16T02:51:12.044Z,93.10
2017-10-16T02:53:39.607Z,93.20
2017-10-16T02:56:07.171Z,93.20
2017-10-16T02:58:34.779Z,93.30
2017-10-16T03:01:02.337Z,93.30
2017-10-16T03:03:29.899Z,93.30
2017-10-16T03:05:57.513Z,93.30
2017-10-16T03:08:25.156Z,93.30
2017-10-16T03:10:52.715Z,93.40
2017-10-16T03:13:20.438Z,93.40
2017-10-16T03:15:48.012Z,93.40
2017-10-16T03:18:15.567Z,93.50
2017-10-16T03:20:43.328Z,93.50
2017-10-16T03:23:11.675Z,93.50
2017-10-16T03:25:39.239Z,93.50
2017-10-16T03:28:06.840Z,93.50
2017-10-16T03:30:35.177Z,93.50
2017-10-16T03:33:02.743Z,93.50
2017-10-16T03:35:30.357Z,93.60
2017-10-16T03:37:57.945Z,93.70
2017-10-16T03:40:25.503Z,93.70
2017-10-16T03:42:53.967Z,93.80
2017-10-16T03:45:22.291Z,93.70
2017-10-16T03:47:49.927Z,93.70
2017-10-16T03:50:17.529Z,93.70
2017-10-16T03:52:45.099Z,93.80
2017-10-16T03:55:12.691Z,93.70
2017-10-16T03:57:40.313Z,93.70
2017-10-16T04:00:07.872Z,93.80
2017-10-16T04:02:35.431Z,93.80
2017-10-16T04:05:03.807Z,93.90
2017-10-16T04:07:32.135Z,93.90
2017-10-16T04:09:59.709Z,93.90
2017-10-16T04:12:28.808Z,93.90
2017-10-16T04:14:56.382Z,93.80
2017-10-16T04:17:23.943Z,93.80
2017-10-16T04:19:51.572Z,93.90
2017-10-16T04:22:19.151Z,94.00
2017-10-16T04:24:46.708Z,94.00
2017-10-16T04:27:14.315Z,94.10
2017-10-16T04:29:41.879Z,94.10
2017-10-16T04:32:09.446Z,94.20
2017-10-16T04:34:37.051Z,94.60
2017-10-16T04:37:04.603Z,94.20
2017-10-16T04:39:32.168Z,94.30
2017-10-16T04:42:00.728Z,94.40
2017-10-16T04:44:29.052Z,94.40
2017-10-16T04:46:56.623Z,94.30
2017-10-16T04:49:24.236Z,94.30
2017-10-16T04:51:51.796Z,94.40
2017-10-16T04:54:19.354Z,94.40
2017-10-16T04:56:47.727Z,94.50
2017-10-16T04:59:16.044Z,94.40
2017-10-16T05:01:43.599Z,94.40
2017-10-16T05:04:11.204Z,94.40
2017-10-16T05:06:38.782Z,94.30
2017-10-16T05:09:06.359Z,94.40
2017-10-16T05:11:34.924Z,94.50
2017-10-16T05:14:02.481Z,94.50
2017-10-16T05:16:30.799Z,94.60
2017-10-16T05:18:58.404Z,94.50
2017-10-16T05:21:25.960Z,94.60
2017-10-16T05:23:53.839Z,94.60
2017-10-16T05:26:21.535Z,94.60
2017-10-16T05:28:49.083Z,94.70
2017-10-16T05:31:17.512Z,94.70
2017-10-16T05:33:45.152Z,94.70
2017-10-16T05:36:12.709Z,94.70
2017-10-16T05:38:40.272Z,94.70
2017-10-16T05:41:08.672Z,94.80
2017-10-16T05:43:36.352Z,94.70
2017-10-16T05:46:03.923Z,94.80
2017-10-16T05:48:32.439Z,94.80
2017-10-16T05:51:00.022Z,94.70
2017-10-16T05:53:27.598Z,94.70
2017-10-16T05:55:55.247Z,95.00
2017-10-16T05:58:22.816Z,94.60
2017-10-16T06:00:50.380Z,94.50
2017-10-16T06:03:18.155Z,94.50
2017-10-16T06:05:46.483Z,94.70
2017-10-16T06:08:14.033Z,94.40
2017-10-16T06:10:41.636Z,94.30
2017-10-16T06:13:09.321Z,94.20
2017-10-16T06:15:36.882Z,94.30
2017-10-16T06:18:04.492Z,94.20
2017-10-16T06:20:32.052Z,94.10
2017-10-16T06:22:59.634Z,94.10
2017-10-16T06:25:28.457Z,93.90
2017-10-16T06:27:56.795Z,93.90
2017-10-16T06:30:24.345Z,93.90
2017-10-16T06:32:51.947Z,93.90
2017-10-16T06:35:19.501Z,93.80
2017-10-16T06:37:47.065Z,93.80
2017-10-16T06:40:14.840Z,93.70
2017-10-16T06:42:42.390Z,93.60
2017-10-16T06:45:10.715Z,93.30
2017-10-16T06:47:38.315Z,93.30
2017-10-16T06:50:05.872Z,93.20
2017-10-16T06:52:33.431Z,93.10
2017-10-16T06:55:01.035Z,93.10
2017-10-16T06:57:29.367Z,93.00
2017-10-16T06:59:56.924Z,93.00
2017-10-16T07:02:25.308Z,92.90
2017-10-16T07:04:52.934Z,92.80
2017-10-16T07:07:21.260Z,92.90
2017-10-16T07:09:48.864Z,92.50
2017-10-16T07:12:16.445Z,92.40
2017-10-16T07:14:44.006Z,92.30
2017-10-16T07:17:11.628Z,92.20
2017-10-16T07:19:39.183Z,92.00
2017-10-16T07:22:06.735Z,91.90
2017-10-16T07:24:34.503Z,91.90
2017-10-16T07:27:02.060Z,91.80
2017-10-16T07:29:29.615Z,91.60
2017-10-16T07:31:57.467Z,91.40
2017-10-16T07:34:25.032Z,91.10
2017-10-16T07:36:53.367Z,90.40
2017-10-16T07:39:21.116Z,90.40
2017-10-16T07:41:48.720Z,90.20
2017-10-16T07:44:16.280Z,89.40
2017-10-16T07:46:43.892Z,88.50
2017-10-16T07:49:11.491Z,88.00
2017-10-16T07:51:39.055Z,87.70
2017-10-16T07:54:07.559Z,86.50
2017-10-16T07:56:35.113Z,86.40
2017-10-16T07:59:02.664Z,86.00
2017-10-16T08:01:30.269Z,85.60
2017-10-16T08:03:57.832Z,85.30
2017-10-16T08:06:25.394Z,84.80
2017-10-16T08:08:53.000Z,84.30
2017-10-16T08:11:20.555Z,84.10
2017-10-16T08:13:48.122Z,83.50
2017-10-16T08:16:15.904Z,83.40
2017-10-16T08:18:43.456Z,83.00
2017-10-16T08:21:11.782Z,81.90
2017-10-16T08:23:39.420Z,81.90
2017-10-16T08:26:06.982Z,82.10
2017-10-16T08:28:34.542Z,81.70
2017-10-16T08:31:03.119Z,81.60
2017-10-16T08:33:31.441Z,81.10
2017-10-16T08:35:59.057Z,81.10
2017-10-16T08:38:26.651Z,80.50
2017-10-16T08:40:54.220Z,80.40
2017-10-16T08:43:21.780Z,80.30
2017-10-16T08:45:49.396Z,80.20
2017-10-16T08:48:17.714Z,79.60
2017-10-16T08:50:45.276Z,79.50
2017-10-16T08:53:13.027Z,79.50
2017-10-16T08:55:40.607Z,79.00
2017-10-16T08:58:08.158Z,78.70
2017-10-16T09:00:35.764Z,78.40
2017-10-16T09:03:03.323Z,78.20
2017-10-16T09:05:31.648Z,78.00
2017-10-16T09:07:59.255Z,77.90
2017-10-16T09:10:26.816Z,77.40
2017-10-16T09:12:54.376Z,77.60
2017-10-16T09:15:22.184Z,77.40
2017-10-16T09:17:49.747Z,77.10
2017-10-16T09:20:17.320Z,77.20
2017-10-16T09:22:44.939Z,77.20
2017-10-16T09:25:12.497Z,76.90
2017-10-16T09:27:40.065Z,77.00
2017-10-16T09:30:07.671Z,76.60
2017-10-16T09:32:35.234Z,76.10
2017-10-16T09:35:02.796Z,76.20
2017-10-16T09:37:30.426Z,75.70
2017-10-16T09:39:58.052Z,75.30
2017-10-16T09:42:25.612Z,75.40
2017-10-16T09:44:53.416Z,74.70
2017-10-16T09:47:21.737Z,74.30
2017-10-16T09:49:49.547Z,74.30
2017-10-16T09:52:17.152Z,73.60
2017-10-16T09:54:44.708Z,73.00
2017-10-16T09:57:12.283Z,72.90
2017-10-16T09:59:39.884Z,73.90
2017-10-16T10:02:08.948Z,73.60
2017-10-16T10:04:36.505Z,73.60
2017-10-16T10:07:04.951Z,74.40
2017-10-16T10:09:32.511Z,74.30
2017-10-16T10:12:00.072Z,73.90
2017-10-16T10:14:28.443Z,75.00
2017-10-16T10:16:56.761Z,74.70
2017-10-16T10:19:24.409Z,74.70
2017-10-16T10:21:52.179Z,74.30
2017-10-16T10:24:20.495Z,75.30
2017-10-16T10:26:48.306Z,75.30
2017-10-16T10:29:15.990Z,75.20
2017-10-16T10:31:43.552Z,74.20
2017-10-16T10:34:11.211Z,74.60
2017-10-16T10:36:38.961Z,73.70
2017-10-16T10:39:08.031Z,73.70
2017-10-16T10:41:35.584Z,73.80
2017-10-16T10:44:03.238Z,73.00
2017-10-16T10:46:31.584Z,72.70
2017-10-16T10:48:59.145Z,72.70
2017-10-16T10:51:27.700Z,73.80
2017-10-16T10:53:55.251Z,73.80
2017-10-16T10:56:23.576Z,73.90
2017-10-16T10:58:51.194Z,73.90
2017-10-16T11:01:18.864Z,74.00
2017-10-16T11:03:46.422Z,73.80
2017-10-16T11:06:14.190Z,73.60
2017-10-16T11:08:41.769Z,73.20
2017-10-16T11:11:09.331Z,73.60
2017-10-16T11:13:37.123Z,73.80
2017-10-16T11:16:04.675Z,73.90
2017-10-16T11:18:32.995Z,75.00
2017-10-16T11:21:00.612Z,75.00
2017-10-16T11:23:28.163Z,75.60
2017-10-16T11:25:55.721Z,74.90
2017-10-16T11:28:23.315Z,74.50
2017-10-16T11:30:51.632Z,74.30
2017-10-16T11:33:19.199Z,74.00
2017-10-16T11:35:46.952Z,74.40
2017-10-16T11:38:14.504Z,74.70
2017-10-16T11:40:42.060Z,74.50
2017-10-16T11:43:10.443Z,74.80
2017-10-16T11:45:38.001Z,74.80
2017-10-16T11:48:05.555Z,75.20
2017-10-16T11:50:33.352Z,74.60
2017-10-16T11:53:01.681Z,75.80
2017-10-16T11:55:29.245Z,75.60
2017-10-16T11:57:56.855Z,75.80
2017-10-16T12:00:24.416Z,74.90
2017-10-16T12:02:51.968Z,75.30
2017-10-16T12:05:19.581Z,73.80
2017-10-16T12:07:47.140Z,73.80
2017-10-16T12:10:14.693Z,74.30
2017-10-16T12:12:42.294Z,74.80
2017-10-16T12:15:09.850Z,74.50
2017-10-16T12:17:37.407Z,74.10
2017-10-16T12:20:05.192Z,74.10
2017-10-16T12:22:32.755Z,74.00
2017-10-16T12:25:01.085Z,74.40
2017-10-16T12:27:29.047Z,74.30
2017-10-16T12:29:56.604Z,74.50
2017-10-16T12:32:24.159Z,74.50
2017-10-16T12:34:51.763Z,74.70
2017-10-16T12:37:19.315Z,74.90
2017-10-16T12:39:46.876Z,75.20
2017-10-16T12:42:14.580Z,75.70
2017-10-16T12:44:42.903Z,74.60
2017-10-16T12:47:10.456Z,74.60
2017-10-16T12:49:38.065Z,74.90
2017-10-16T12:52:05.620Z,74.90
2017-10-16T12:54:33.175Z,75.10
2017-10-16T12:57:00.796Z,75.20
2017-10-16T12:59:28.352Z,74.50
2017-10-16T13:01:55.912Z,74.80
2017-10-16T13:04:23.685Z,75.10
2017-10-16T13:06:52.004Z,75.20
2017-10-16T13:09:19.564Z,75.10
2017-10-16T13:11:47.180Z,75.60
2017-10-16T13:14:14.735Z,75.40
2017-10-16T13:16:42.291Z,75.30
2017-10-16T13:19:09.905Z,75.50
2017-10-16T13:21:37.459Z,75.60
2017-10-16T13:24:05.016Z,75.30
2017-10-16T13:26:32.796Z,75.30
2017-10-16T13:29:01.114Z,75.90
2017-10-16T13:31:28.687Z,75.70
2017-10-16T13:33:56.299Z,75.00
2017-10-16T13:36:23.856Z,74.90
2017-10-16T13:38:51.416Z,75.40
2017-10-16T13:41:19.032Z,75.80
2017-10-16T13:43:46.583Z,76.00
2017-10-16T13:46:14.144Z,75.80
2017-10-16T13:48:41.747Z,76.10
2017-10-16T13:51:09.305Z,76.00
2017-10-16T13:53:36.855Z,76.40
2017-10-16T13:56:04.457Z,75.80
2017-10-16T13:58:32.772Z,76.60
2017-10-16T14:01:00.335Z,76.50
2017-10-16T14:03:28.087Z,76.20
2017-10-16T14:05:55.638Z,75.90
2017-10-16T14:08:23.964Z,76.60
2017-10-16T14:10:51.750Z,76.60
2017-10-16T14:13:20.072Z,76.70
2017-10-16T14:15:47.629Z,76.60
2017-10-16T14:18:15.397Z,77.00
2017-10-16T14:20:42.956Z,77.00
2017-10-16T14:23:11.288Z,77.20
2017-10-16T14:25:39.052Z,77.20
2017-10-16T14:28:07.664Z,77.60
2017-10-16T14:30:35.222Z,77.60
2017-10-16T14:33:02.844Z,77.80
2017-10-16T14:35:30.399Z,78.20
2017-10-16T14:37:57.951Z,78.30
2017-10-16T14:40:25.586Z,78.50
2017-10-16T14:42:53.148Z,78.90
2017-10-16T14:45:20.747Z,78.90
2017-10-16T14:47:48.389Z,79.20
2017-10-16T14:50:15.943Z,79.30
2017-10-16T14:52:43.504Z,79.50
2017-10-16T14:55:11.292Z,79.70
2017-10-16T14:57:38.852Z,79.90
2017-10-16T15:00:06.423Z,80.40
2017-10-16T15:02:34.125Z,80.60
2017-10-16T15:05:02.443Z,81.10
2017-10-16T15:07:30.001Z,81.10
2017-10-16T15:09:57.775Z,81.40
2017-10-16T15:12:25.356Z,81.70
2017-10-16T15:14:52.912Z,81.70
2017-10-16T15:17:20.515Z,81.90
2017-10-16T15:19:48.835Z,82.90
2017-10-16T15:22:16.401Z,82.30
2017-10-16T15:24:44.173Z,82.60
2017-10-16T15:27:11.745Z,82.90
2017-10-16T15:29:40.089Z,83.50
2017-10-16T15:32:08.468Z,83.60
2017-10-16T15:34:36.788Z,83.90
2017-10-16T15:37:04.349Z,83.90
2017-10-16T15:39:32.049Z,84.10
2017-10-16T15:41:59.609Z,84.30
2017-10-16T15:44:27.168Z,84.30
2017-10-16T15:46:54.880Z,84.50
2017-10-16T15:49:22.445Z,84.90
2017-10-16T15:51:50.012Z,85.10
2017-10-16T15:54:19.349Z,85.30
2017-10-16T15:56:46.924Z,85.20
2017-10-16T15:59:14.483Z,85.40
2017-10-16T16:01:42.091Z,85.60
2017-10-16T16:04:09.650Z,85.70
2017-10-16T16:06:37.213Z,85.90
2017-10-16T16:09:04.829Z,86.30
2017-10-16T16:11:32.400Z,86.50
2017-10-16T16:13:59.951Z,86.80
2017-10-16T16:16:27.722Z,87.10
2017-10-16T16:18:56.047Z,87.60
2017-10-16T16:21:23.639Z,87.60
2017-10-16T16:23:52.022Z,88.20
2017-10-16T16:26:19.582Z,88.20
2017-10-16T16:28:47.146Z,88.20
2017-10-16T16:31:15.704Z,88.90
2017-10-16T16:33:43.267Z,88.90
2017-10-16T16:36:10.860Z,89.10
2017-10-16T16:38:39.228Z,89.80
2017-10-16T16:41:06.796Z,89.80
2017-10-16T16:43:35.863Z,90.00
2017-10-16T16:46:03.624Z,90.00
2017-10-16T16:48:31.980Z,90.10
2017-10-16T16:50:59.540Z,90.10
2017-10-16T16:53:28.099Z,90.30
2017-10-16T16:55:55.673Z,90.20
2017-10-16T16:58:23.236Z,90.30
2017-10-16T17:00:50.849Z,90.30
2017-10-16T17:03:19.176Z,90.40
2017-10-16T17:05:46.743Z,90.40
2017-10-16T17:08:15.120Z,90.50
2017-10-16T17:10:42.680Z,90.50
2017-10-16T17:13:10.255Z,90.60
2017-10-16T17:15:37.858Z,90.60
2017-10-16T17:18:05.431Z,90.70
2017-10-16T17:20:32.991Z,90.70
2017-10-16T17:23:00.595Z,91.00
2017-10-16T17:25:28.161Z,90.70
2017-10-16T17:27:55.731Z,90.80
2017-10-16T17:30:23.329Z,90.80
2017-10-16T17:32:50.884Z,90.90
2017-10-16T17:35:18.448Z,90.90
2017-10-16T17:37:46.220Z,91.10
2017-10-16T17:40:14.551Z,91.10
2017-10-16T17:42:42.105Z,91.10
2017-10-16T17:45:09.719Z,91.10
2017-10-16T17:47:37.283Z,91.20
2017-10-16T17:50:04.848Z,91.30
2017-10-16T17:52:32.443Z,91.30
2017-10-16T17:55:00.007Z,91.40
2017-10-16T17:57:27.569Z,91.60
2017-10-16T17:59:55.354Z,91.60
2017-10-16T18:02:22.915Z,91.80
2017-10-16T18:04:51.248Z,91.80
2017-10-16T18:07:19.009Z,91.80
2017-10-16T18:09:46.568Z,91.90
2017-10-16T18:12:14.892Z,92.10
2017-10-16T18:14:42.523Z,92.00
2017-10-16T18:17:10.087Z,92.10
2017-10-16T18:19:37.719Z,92.20
2017-10-16T18:22:05.316Z,92.40
2017-10-16T18:24:32.872Z,92.50
2017-10-16T18:27:00.428Z,92.70
2017-10-16T18:29:28.787Z,92.80
2017-10-16T18:31:57.110Z,93.00
2017-10-16T18:34:24.675Z,92.90
2017-10-16T18:36:52.303Z,92.90
2017-10-16T18:39:19.859Z,92.80
2017-10-16T18:41:47.415Z,92.80
2017-10-16T18:44:15.126Z,92.70
2017-10-16T18:46:43.295Z,92.10
2017-10-16T18:49:10.938Z,92.30
2017-10-16T18:51:38.748Z,92.00
2017-10-16T18:54:06.306Z,92.00
2017-10-16T18:56:33.859Z,91.90
2017-10-16T18:59:01.551Z,91.70
2017-10-16T19:01:29.108Z,91.60
2017-10-16T19:03:57.427Z,91.30
2017-10-16T19:06:25.020Z,91.30
2017-10-16T19:08:52.580Z,91.20
2017-10-16T19:11:20.136Z,91.10
2017-10-16T19:13:47.732Z,90.90
2017-10-16T19:16:15.291Z,90.90
2017-10-16T19:18:43.620Z,90.80
2017-10-16T19:21:11.224Z,90.70
2017-10-16T19:23:38.790Z,90.70
2017-10-16T19:26:06.352Z,90.60
2017-10-16T19:28:34.156Z,90.50
2017-10-16T19:31:01.711Z,90.50
2017-10-16T19:33:30.036Z,90.50
2017-10-16T19:35:57.642Z,90.40
2017-10-16T19:38:25.196Z,90.40
2017-10-16T19:40:52.765Z,90.20
2017-10-16T19:43:20.380Z,90.10
2017-10-16T19:45:47.947Z,90.10
2017-10-16T19:48:15.506Z,90.00
2017-10-16T19:50:43.100Z,90.00
2017-10-16T19:53:10.662Z,90.00
2017-10-16T19:55:38.219Z,89.90
2017-10-16T19:58:05.820Z,89.80
2017-10-16T20:00:34.150Z,89.90
2017-10-16T20:03:01.703Z,89.80
2017-10-16T20:05:29.404Z,89.90
2017-10-16T20:07:56.965Z,89.90
2017-10-16T20:10:24.529Z,90.00
2017-10-16T20:12:52.135Z,90.00
2017-10-16T20:15:19.704Z,90.00
2017-10-16T20:17:47.272Z,90.10
2017-10-16T20:20:15.015Z,90.10
2017-10-16T20:22:42.568Z,90.20
2017-10-16T20:25:10.920Z,90.10
2017-10-16T20:27:38.532Z,90.10
2017-10-16T20:30:06.091Z,90.20
2017-10-16T20:32:33.672Z,90.00
2017-10-16T20:35:01.384Z,89.80
2017-10-16T20:37:28.949Z,89.90
2017-10-16T20:39:56.504Z,89.70
2017-10-16T20:42:24.271Z,89.20
2017-10-16T20:44:51.824Z,88.50
2017-10-16T20:47:19.375Z,87.90
2017-10-16T20:49:47.835Z,86.90
2017-10-16T20:52:16.160Z,86.90
2017-10-16T20:54:43.719Z,87.50
2017-10-16T20:57:11.328Z,86.80
2017-10-16T20:59:38.879Z,86.80
2017-10-16T21:02:06.435Z,86.60
2017-10-16T21:04:34.039Z,86.70
2017-10-16T21:07:01.598Z,86.40
2017-10-16T21:09:29.164Z,86.00
2017-10-16T21:11:56.780Z,85.90
2017-10-16T21:14:24.336Z,85.80
2017-10-16T21:16:51.895Z,85.60
2017-10-16T21:19:19.665Z,85.40
2017-10-16T21:21:47.221Z,85.30
2017-10-16T21:24:15.555Z,84.60
2017-10-16T21:26:43.169Z,84.60
2017-10-16T21:29:11.497Z,83.40
2017-10-16T21:31:39.060Z,83.40
2017-10-16T21:34:06.673Z,83.10
2017-10-16T21:36:34.245Z,82.90
2017-10-16T21:39:01.800Z,82.60
2017-10-16T21:41:30.262Z,82.40
2017-10-16T21:43:58.592Z,82.80
2017-10-16T21:46:26.164Z,82.80
2017-10-16T21:48:53.766Z,82.90
2017-10-16T21:51:21.339Z,83.20
2017-10-16T21:53:48.901Z,83.60
2017-10-16T21:56:17.279Z,84.60
2017-10-16T21:58:44.842Z,84.60
2017-10-16T22:01:12.402Z,85.20
2017-10-16T22:03:40.001Z,85.40
2017-10-16T22:06:08.329Z,86.00
2017-10-16T22:08:35.884Z,85.90
2017-10-16T22:11:03.486Z,86.10
2017-10-16T22:13:31.062Z,86.40
2017-10-16T22:15:58.616Z,86.60
2017-10-16T22:18:26.218Z,86.50
2017-10-16T22:20:53.772Z,86.70
2017-10-16T22:23:21.328Z,86.80
2017-10-16T22:25:48.923Z,86.80
2017-10-16T22:28:16.509Z,86.70
2017-10-16T22:30:44.833Z,87.40
2017-10-16T22:33:12.442Z,86.70
2017-10-16T22:35:40.006Z,86.30
2017-10-16T22:38:07.567Z,86.20
2017-10-16T22:40:35.191Z,86.00
2017-10-16T22:43:02.753Z,85.90
2017-10-16T22:45:30.341Z,85.70
2017-10-16T22:47:58.708Z,85.40
2017-10-16T22:50:27.027Z,85.20
2017-10-16T22:52:56.151Z,85.20
2017-10-16T22:55:24.620Z,85.30
2017-10-16T22:57:52.956Z,85.20
2017-10-16T23:00:20.511Z,85.10
2017-10-16T23:02:48.111Z,85.10
2017-10-16T23:05:15.665Z,84.80
2017-10-16T23:07:43.224Z,84.80
2017-10-16T23:10:11.803Z,84.90
2017-10-16T23:12:39.377Z,84.90
2017-10-16T23:15:06.940Z,85.00
2017-10-16T23:17:34.740Z,85.10
2017-10-16T23:20:02.303Z,84.90
2017-10-16T23:22:29.899Z,84.70
2017-10-16T23:24:57.491Z,84.90
2017-10-16T23:27:25.048Z,84.80
2017-10-16T23:29:52.620Z,84.70
2017-10-16T23:32:20.324Z,84.90
2017-10-16T23:34:47.875Z,85.00
2017-10-16T23:37:15.428Z,84.90
2017-10-16T23:39:43.123Z,85.00
2017-10-16T23:42:11.448Z,85.10
2017-10-16T23:44:39.007Z,85.30
2017-10-16T23:47:06.616Z,85.40
2017-10-16T23:49:34.185Z,85.40
2017-10-16T23:52:01.744Z,85.70
2017-10-16T23:54:29.359Z,85.70
2017-10-16T23:56:56.944Z,85.80
2017-10-16T23:59:24.504Z,85.70
